createdAt,value
2023-04-30T00:02:20.454Z,7.23
2023-04-30T00:04:47.558Z,7.05
2023-04-30T00:07:14.436Z,7.14
2023-04-30T00:09:41.283Z,7.11
2023-04-30T00:12:08.122Z,7.07
2023-04-30T00:14:34.945Z,7.02
2023-04-30T00:17:01.788Z,6.99
2023-04-30T00:19:28.527Z,6.86
2023-04-30T00:21:55.349Z,6.85
2023-04-30T00:24:22.345Z,6.93
2023-04-30T00:26:49.132Z,6.82
2023-04-30T00:29:15.814Z,6.80
2023-04-30T00:31:42.817Z,6.87
2023-04-30T00:34:09.693Z,6.79
2023-04-30T00:36:36.483Z,6.82
2023-04-30T00:39:03.413Z,6.71
2023-04-30T00:41:31.318Z,6.71
2023-04-30T00:43:58.118Z,6.72
2023-04-30T00:46:24.887Z,6.83
2023-04-30T00:48:51.894Z,6.84
2023-04-30T00:51:19.186Z,6.65
2023-04-30T00:53:46.585Z,6.79
2023-04-30T00:56:16.490Z,6.68
2023-04-30T00:58:43.441Z,6.56
2023-04-30T01:01:10.720Z,6.48
2023-04-30T01:03:37.674Z,6.48
2023-04-30T01:06:04.608Z,6.59
2023-04-30T01:08:32.350Z,6.33
2023-04-30T01:11:10.520Z,6.38
2023-04-30T01:13:49.489Z,6.37
2023-04-30T01:16:30.448Z,6.31
2023-04-30T01:19:01.956Z,6.28
2023-04-30T01:21:31.039Z,6.26
2023-04-30T01:24:07.055Z,6.34
2023-04-30T01:26:55.972Z,6.36
2023-04-30T01:29:25.109Z,6.30
2023-04-30T01:31:52.006Z,6.33
2023-04-30T01:34:18.872Z,6.13
2023-04-30T01:36:48.646Z,6.01
2023-04-30T01:39:35.083Z,5.94
2023-04-30T01:42:17.732Z,5.93
2023-04-30T01:45:18.478Z,5.96
2023-04-30T01:47:57.622Z,5.77
2023-04-30T01:50:33.306Z,5.67
2023-04-30T01:53:02.203Z,5.85
2023-04-30T01:55:45.898Z,5.64
2023-04-30T01:58:14.821Z,5.70
2023-04-30T02:00:41.930Z,5.71
2023-04-30T02:03:08.882Z,5.71
2023-04-30T02:05:35.780Z,5.74
2023-04-30T02:08:03.241Z,5.70
2023-04-30T02:10:30.709Z,5.51
2023-04-30T02:12:57.619Z,5.51
2023-04-30T02:15:24.571Z,5.53
2023-04-30T02:17:56.199Z,5.41
2023-04-30T02:20:23.006Z,5.36
2023-04-30T02:22:50.981Z,5.34
2023-04-30T02:25:17.749Z,5.13
2023-04-30T02:27:44.480Z,5.13
2023-04-30T02:30:11.436Z,5.15
2023-04-30T02:32:38.297Z,5.03
2023-04-30T02:35:05.702Z,5.12
2023-04-30T02:37:32.413Z,5.07
2023-04-30T02:39:59.663Z,5.06
2023-04-30T02:42:26.493Z,4.97
2023-04-30T02:44:53.344Z,5.07
2023-04-30T02:47:20.192Z,5.03
2023-04-30T02:49:47.138Z,4.89
2023-04-30T02:52:13.960Z,4.96
2023-04-30T02:54:40.790Z,4.98
2023-04-30T02:57:07.559Z,4.90
2023-04-30T02:59:34.386Z,4.97
2023-04-30T03:02:01.173Z,4.98
2023-04-30T03:04:27.972Z,4.89
2023-04-30T03:06:54.715Z,4.87
2023-04-30T03:09:21.552Z,4.80
2023-04-30T03:11:48.532Z,4.86
2023-04-30T03:14:15.635Z,4.84
2023-04-30T03:16:42.469Z,4.74
2023-04-30T03:19:09.385Z,4.72
2023-04-30T03:21:36.117Z,4.87
2023-04-30T03:24:03.028Z,4.80
2023-04-30T03:26:29.684Z,4.77
2023-04-30T03:28:56.491Z,4.75
2023-04-30T03:31:23.223Z,4.72
2023-04-30T03:33:50.024Z,4.71
2023-04-30T03:36:16.946Z,4.61
2023-04-30T03:38:43.744Z,4.73
2023-04-30T03:41:10.966Z,4.61
2023-04-30T03:43:38.097Z,4.78
2023-04-30T03:46:05.090Z,4.89
2023-04-30T03:48:32.204Z,4.84
2023-04-30T03:50:58.995Z,4.88
2023-04-30T03:53:28.651Z,4.92
2023-04-30T03:55:56.026Z,4.94
2023-04-30T03:58:23.050Z,4.92
2023-04-30T04:00:50.329Z,5.05
2023-04-30T04:03:17.458Z,5.00
2023-04-30T04:05:44.557Z,5.03
2023-04-30T04:08:11.262Z,5.10
2023-04-30T04:10:39.283Z,5.17
2023-04-30T04:13:06.738Z,5.43
2023-04-30T04:15:34.462Z,5.63
2023-04-30T04:18:01.271Z,5.89
2023-04-30T04:20:30.049Z,5.90
2023-04-30T04:22:57.329Z,5.85
2023-04-30T04:25:27.646Z,6.02
2023-04-30T04:27:54.396Z,6.05
2023-04-30T04:30:21.120Z,6.05
2023-04-30T04:32:51.767Z,6.02
2023-04-30T04:35:19.379Z,6.02
2023-04-30T04:37:46.240Z,6.16
2023-04-30T04:40:13.775Z,6.25
2023-04-30T04:42:40.645Z,6.33
2023-04-30T04:45:08.409Z,6.43
2023-04-30T04:47:35.673Z,6.52
2023-04-30T04:50:02.677Z,6.79
2023-04-30T04:52:29.422Z,6.84
2023-04-30T04:54:56.251Z,7.07
2023-04-30T04:57:23.045Z,7.09
2023-04-30T04:59:49.821Z,7.24
2023-04-30T05:02:16.719Z,7.43
2023-04-30T05:04:43.485Z,7.62
2023-04-30T05:07:10.189Z,7.65
2023-04-30T05:09:36.968Z,7.72
2023-04-30T05:12:04.260Z,7.97
2023-04-30T05:14:30.995Z,8.03
2023-04-30T05:16:57.802Z,8.01
2023-04-30T05:19:24.721Z,8.29
2023-04-30T05:21:51.454Z,8.46
2023-04-30T05:24:18.173Z,8.53
2023-04-30T05:26:44.947Z,8.61
2023-04-30T05:29:12.343Z,8.55
2023-04-30T05:31:39.614Z,8.61
2023-04-30T05:34:06.338Z,8.72
2023-04-30T05:36:33.191Z,8.78
2023-04-30T05:38:59.968Z,9.32
2023-04-30T05:41:26.797Z,9.89
2023-04-30T05:43:53.582Z,9.05
2023-04-30T05:46:20.688Z,8.90
2023-04-30T05:48:48.319Z,8.86
2023-04-30T05:51:15.189Z,9.03
2023-04-30T05:53:41.968Z,8.91
2023-04-30T05:56:08.991Z,9.07
2023-04-30T05:58:35.771Z,9.19
2023-04-30T06:01:02.736Z,9.46
2023-04-30T06:03:29.487Z,9.27
2023-04-30T06:05:56.286Z,9.61
2023-04-30T06:08:23.100Z,9.63
2023-04-30T06:10:50.977Z,9.56
2023-04-30T06:13:17.867Z,9.84
2023-04-30T06:15:44.953Z,9.93
2023-04-30T06:18:14.254Z,9.75
2023-04-30T06:20:41.185Z,10.05
2023-04-30T06:23:08.977Z,10.14
2023-04-30T06:25:35.997Z,11.16
2023-04-30T06:28:02.746Z,12.04
2023-04-30T06:30:31.744Z,13.34
2023-04-30T06:32:58.616Z,13.16
2023-04-30T06:35:25.433Z,13.94
2023-04-30T06:37:52.147Z,13.81
2023-04-30T06:40:19.171Z,13.40
2023-04-30T06:42:47.498Z,13.06
2023-04-30T06:45:15.307Z,13.09
2023-04-30T06:47:42.923Z,13.24
2023-04-30T06:50:11.456Z,12.26
2023-04-30T06:52:38.465Z,12.67
2023-04-30T06:55:05.763Z,12.60
2023-04-30T06:57:32.561Z,12.73
2023-04-30T06:59:59.946Z,13.10
2023-04-30T07:02:28.030Z,13.84
2023-04-30T07:04:55.169Z,13.10
2023-04-30T07:07:23.131Z,12.72
2023-04-30T07:09:51.809Z,11.90
2023-04-30T07:12:18.807Z,10.97
2023-04-30T07:14:45.620Z,11.24
2023-04-30T07:17:12.851Z,11.08
2023-04-30T07:19:39.746Z,11.03
2023-04-30T07:22:06.611Z,10.75
2023-04-30T07:24:33.451Z,10.23
2023-04-30T07:27:03.027Z,10.64
2023-04-30T07:29:30.379Z,10.92
2023-04-30T07:31:57.352Z,10.93
2023-04-30T07:34:25.239Z,10.70
2023-04-30T07:36:52.258Z,10.96
2023-04-30T07:39:19.191Z,11.01
2023-04-30T07:41:46.083Z,11.09
2023-04-30T07:44:12.898Z,11.45
2023-04-30T07:46:39.825Z,11.73
2023-04-30T07:49:06.704Z,11.31
2023-04-30T07:51:34.041Z,10.72
2023-04-30T07:54:00.996Z,10.88
2023-04-30T07:56:27.775Z,10.81
2023-04-30T07:58:54.602Z,10.85
2023-04-30T08:01:21.635Z,10.77
2023-04-30T08:03:48.903Z,11.04
2023-04-30T08:06:16.282Z,11.24
2023-04-30T08:08:43.214Z,10.49
2023-04-30T08:11:10.796Z,10.51
2023-04-30T08:13:37.632Z,10.98
2023-04-30T08:16:04.523Z,11.22
2023-04-30T08:18:32.344Z,11.19
2023-04-30T08:21:00.726Z,11.09
2023-04-30T08:23:27.969Z,11.09
2023-04-30T08:25:54.849Z,10.69
2023-04-30T08:28:21.864Z,11.41
2023-04-30T08:30:48.729Z,11.54
2023-04-30T08:33:15.535Z,11.46
2023-04-30T08:35:42.441Z,11.12
2023-04-30T08:38:10.225Z,11.01
2023-04-30T08:43:08.780Z,10.66
2023-04-30T08:45:39.580Z,11.05
2023-04-30T08:48:11.135Z,10.86
2023-04-30T08:50:38.035Z,11.01
2023-04-30T08:53:04.920Z,11.19
2023-04-30T08:55:34.586Z,11.09
2023-04-30T08:58:01.523Z,11.12
2023-04-30T09:00:28.426Z,11.57
2023-04-30T09:02:55.689Z,12.20
2023-04-30T09:05:22.480Z,12.86
2023-04-30T09:08:02.558Z,12.77
2023-04-30T09:10:34.822Z,13.15
2023-04-30T09:13:06.963Z,13.48
2023-04-30T09:15:36.000Z,13.97
2023-04-30T09:18:18.258Z,13.20
2023-04-30T09:20:56.078Z,13.12
2023-04-30T09:23:22.934Z,13.35
2023-04-30T09:25:49.742Z,13.93
2023-04-30T09:28:16.836Z,14.07
2023-04-30T09:30:43.634Z,14.71
2023-04-30T09:33:12.192Z,14.79
2023-04-30T09:35:41.881Z,14.79
2023-04-30T09:38:27.713Z,15.30
2023-04-30T09:40:54.784Z,15.57
2023-04-30T09:43:22.241Z,15.42
2023-04-30T09:45:52.588Z,14.98
2023-04-30T09:48:22.836Z,15.88
2023-04-30T09:50:51.132Z,15.36
2023-04-30T09:53:19.315Z,16.21
2023-04-30T09:56:12.212Z,16.15
2023-04-30T09:58:39.676Z,16.50
2023-04-30T10:01:11.394Z,15.69
2023-04-30T10:03:43.387Z,16.12
2023-04-30T10:06:13.892Z,15.62
2023-04-30T10:08:42.634Z,16.22
2023-04-30T10:11:16.496Z,15.46
2023-04-30T10:14:01.889Z,15.78
2023-04-30T10:16:51.628Z,15.95
2023-04-30T10:19:32.041Z,16.08
2023-04-30T10:22:01.235Z,16.66
2023-04-30T10:24:28.199Z,16.56
2023-04-30T10:26:56.508Z,16.43
2023-04-30T10:29:23.317Z,16.96
2023-04-30T10:31:52.790Z,17.20
2023-04-30T10:35:02.066Z,17.24
2023-04-30T10:37:38.050Z,17.15
2023-04-30T10:40:05.745Z,17.41
2023-04-30T10:42:35.839Z,16.29
2023-04-30T10:45:06.287Z,18.09
2023-04-30T10:47:33.198Z,18.96
2023-04-30T10:50:05.590Z,18.73
2023-04-30T10:52:32.582Z,18.52
2023-04-30T10:54:59.496Z,18.28
2023-04-30T10:57:29.685Z,18.94
2023-04-30T11:00:09.444Z,18.34
2023-04-30T11:02:45.164Z,19.36
2023-04-30T11:05:14.425Z,18.11
2023-04-30T11:07:58.859Z,19.41
2023-04-30T11:10:28.550Z,18.97
2023-04-30T11:12:55.887Z,18.63
2023-04-30T11:15:27.905Z,18.29
2023-04-30T11:17:59.500Z,19.00
2023-04-30T11:20:26.768Z,18.61
2023-04-30T11:23:40.135Z,18.22
2023-04-30T11:26:09.218Z,18.49
2023-04-30T11:28:38.004Z,19.38
2023-04-30T11:31:05.579Z,19.52
2023-04-30T11:33:33.801Z,17.94
2023-04-30T11:36:01.907Z,17.73
2023-04-30T11:38:36.353Z,17.61
2023-04-30T11:41:04.106Z,17.37
2023-04-30T11:43:32.851Z,17.87
2023-04-30T11:46:13.973Z,17.69
2023-04-30T11:48:45.917Z,17.49
2023-04-30T11:51:19.589Z,17.81
2023-04-30T11:53:50.990Z,18.59
2023-04-30T11:56:20.693Z,17.91
2023-04-30T11:58:48.635Z,18.24
2023-04-30T12:01:15.976Z,17.93
2023-04-30T12:03:47.826Z,19.57
2023-04-30T12:06:25.967Z,19.45
2023-04-30T12:08:57.217Z,18.94
2023-04-30T12:11:26.477Z,19.55
2023-04-30T12:14:03.478Z,18.98
2023-04-30T12:16:49.337Z,18.62
2023-04-30T12:19:21.846Z,18.79
2023-04-30T12:21:49.703Z,19.05
2023-04-30T12:24:18.737Z,19.54
2023-04-30T12:26:46.252Z,19.15
2023-04-30T12:29:16.346Z,19.44
2023-04-30T12:31:43.857Z,18.88
2023-04-30T12:34:13.339Z,19.29
2023-04-30T12:36:44.461Z,19.21
2023-04-30T12:39:12.193Z,19.65
2023-04-30T12:41:44.367Z,19.54
2023-04-30T12:44:25.074Z,19.05
2023-04-30T12:46:56.303Z,18.74
2023-04-30T12:49:29.856Z,18.93
2023-04-30T12:52:11.425Z,18.59
2023-04-30T12:54:39.498Z,18.36
2023-04-30T12:57:08.221Z,18.43
2023-04-30T12:59:55.619Z,18.54
2023-04-30T13:02:25.478Z,18.15
2023-04-30T13:04:53.666Z,18.19
2023-04-30T13:07:21.038Z,17.95
2023-04-30T13:09:47.834Z,18.20
2023-04-30T13:12:15.108Z,18.05
2023-04-30T13:14:42.085Z,18.49
2023-04-30T13:17:10.937Z,18.25
2023-04-30T13:19:37.817Z,18.44
2023-04-30T13:22:04.792Z,19.08
2023-04-30T13:24:31.711Z,18.77
2023-04-30T13:26:59.309Z,18.67
2023-04-30T13:29:26.767Z,18.59
2023-04-30T13:31:53.606Z,18.24
2023-04-30T13:34:20.613Z,18.86
2023-04-30T13:36:47.500Z,18.85
2023-04-30T13:39:14.487Z,18.81
2023-04-30T13:41:41.348Z,19.09
2023-04-30T13:44:08.152Z,18.13
2023-04-30T13:46:35.007Z,19.13
2023-04-30T13:49:01.833Z,18.79
2023-04-30T13:51:28.798Z,19.14
2023-04-30T13:53:55.697Z,19.08
2023-04-30T13:56:22.464Z,19.36
2023-04-30T13:58:49.284Z,18.88
2023-04-30T14:01:18.334Z,19.15
2023-04-30T14:03:46.611Z,19.16
2023-04-30T14:06:13.664Z,18.98
2023-04-30T14:08:40.490Z,18.89
2023-04-30T14:11:07.410Z,18.84
2023-04-30T14:13:34.154Z,18.94
2023-04-30T14:16:01.046Z,19.05
2023-04-30T14:18:27.810Z,18.95
2023-04-30T14:20:54.520Z,18.65
2023-04-30T14:23:21.292Z,18.34
2023-04-30T14:25:48.273Z,18.48
2023-04-30T14:28:15.152Z,18.55
2023-04-30T14:30:41.821Z,18.54
2023-04-30T14:33:11.164Z,18.68
2023-04-30T14:35:38.142Z,19.09
2023-04-30T14:38:05.054Z,18.67
2023-04-30T14:40:31.956Z,18.32
2023-04-30T14:42:58.816Z,18.06
2023-04-30T14:45:28.142Z,18.73
2023-04-30T14:47:55.077Z,18.04
2023-04-30T14:50:22.424Z,18.55
2023-04-30T14:52:49.377Z,17.66
2023-04-30T14:55:16.261Z,17.80
2023-04-30T14:57:43.226Z,17.32
2023-04-30T15:00:11.075Z,17.72
2023-04-30T15:02:38.020Z,17.75
2023-04-30T15:05:05.260Z,17.51
2023-04-30T15:07:31.973Z,18.03
2023-04-30T15:09:58.892Z,18.24
2023-04-30T15:12:25.955Z,18.18
2023-04-30T15:14:52.714Z,18.57
2023-04-30T15:17:19.837Z,18.40
2023-04-30T15:19:46.821Z,18.35
2023-04-30T15:22:14.026Z,17.99
2023-04-30T15:24:41.360Z,18.19
2023-04-30T15:27:08.244Z,18.27
2023-04-30T15:29:35.561Z,18.36
2023-04-30T15:32:02.446Z,18.17
2023-04-30T15:34:29.558Z,18.13
2023-04-30T15:36:58.881Z,17.55
2023-04-30T15:39:26.994Z,18.03
2023-04-30T15:41:54.069Z,18.00
2023-04-30T15:44:20.901Z,17.87
2023-04-30T15:46:47.838Z,17.91
2023-04-30T15:49:15.932Z,17.70
2023-04-30T15:51:43.238Z,17.60
2023-04-30T15:54:11.371Z,17.39
2023-04-30T15:56:38.829Z,17.54
2023-04-30T15:59:06.336Z,17.48
2023-04-30T16:01:33.515Z,17.59
2023-04-30T16:04:01.258Z,17.19
2023-04-30T16:06:29.652Z,17.22
2023-04-30T16:08:56.562Z,17.21
2023-04-30T16:11:24.040Z,17.02
2023-04-30T16:13:54.541Z,16.80
2023-04-30T16:16:21.525Z,16.39
2023-04-30T16:18:48.496Z,16.19
2023-04-30T16:21:16.037Z,15.87
2023-04-30T16:23:43.041Z,15.66
2023-04-30T16:26:10.031Z,15.27
2023-04-30T16:28:36.858Z,14.93
2023-04-30T16:31:04.280Z,14.56
2023-04-30T16:33:31.052Z,14.32
2023-04-30T16:35:59.262Z,13.97
2023-04-30T16:38:26.045Z,13.84
2023-04-30T16:40:54.170Z,13.64
2023-04-30T16:43:20.924Z,13.37
2023-04-30T16:45:48.220Z,13.03
2023-04-30T16:48:17.720Z,12.91
2023-04-30T16:50:44.745Z,13.04
2023-04-30T16:53:11.850Z,12.85
2023-04-30T16:55:38.923Z,12.87
2023-04-30T16:58:05.863Z,12.75
2023-04-30T17:00:32.989Z,12.52
2023-04-30T17:03:00.032Z,12.46
2023-04-30T17:05:26.966Z,12.33
2023-04-30T17:07:54.148Z,12.31
2023-04-30T17:10:21.670Z,12.07
2023-04-30T17:12:48.666Z,12.04
2023-04-30T17:15:15.559Z,12.10
2023-04-30T17:17:42.387Z,12.12
2023-04-30T17:20:09.901Z,11.94
2023-04-30T17:22:38.290Z,12.12
2023-04-30T17:25:05.674Z,11.96
2023-04-30T17:27:32.437Z,11.69
2023-04-30T17:29:59.452Z,11.68
2023-04-30T17:32:26.586Z,11.58
2023-04-30T17:34:53.687Z,11.55
2023-04-30T17:37:20.509Z,11.45
2023-04-30T17:39:47.278Z,12.01
2023-04-30T17:42:14.160Z,11.70
2023-04-30T17:44:41.335Z,11.68
2023-04-30T17:47:08.181Z,11.41
2023-04-30T17:49:34.993Z,11.29
2023-04-30T17:52:01.791Z,11.11
2023-04-30T17:54:32.383Z,11.53
2023-04-30T17:56:59.569Z,11.17
2023-04-30T17:59:28.959Z,11.24
2023-04-30T18:01:56.521Z,10.95
2023-04-30T18:04:23.397Z,10.86
2023-04-30T18:06:50.337Z,10.82
2023-04-30T18:09:17.578Z,10.77
2023-04-30T18:11:44.703Z,10.73
2023-04-30T18:14:11.527Z,10.71
2023-04-30T18:16:38.496Z,10.71
2023-04-30T18:19:05.300Z,11.43
2023-04-30T18:21:32.326Z,11.08
2023-04-30T18:23:59.249Z,10.62
2023-04-30T18:26:26.017Z,10.48
2023-04-30T18:28:53.102Z,10.38
2023-04-30T18:31:19.896Z,10.30
2023-04-30T18:33:47.132Z,10.16
2023-04-30T18:36:14.066Z,10.35
2023-04-30T18:38:40.836Z,9.96
2023-04-30T18:41:08.179Z,9.88
2023-04-30T18:43:37.159Z,10.35
2023-04-30T18:46:05.818Z,9.79
2023-04-30T18:48:32.708Z,9.66
2023-04-30T18:50:59.528Z,9.67
2023-04-30T18:53:26.401Z,9.48
2023-04-30T18:55:53.213Z,9.55
2023-04-30T18:58:20.027Z,9.79
2023-04-30T19:00:46.870Z,9.33
2023-04-30T19:03:13.845Z,9.15
2023-04-30T19:05:42.580Z,9.11
2023-04-30T19:08:09.947Z,9.03
2023-04-30T19:10:37.160Z,9.02
2023-04-30T19:13:04.143Z,8.88
2023-04-30T19:15:30.992Z,8.86
2023-04-30T19:17:57.964Z,8.77
2023-04-30T19:20:24.891Z,8.85
2023-04-30T19:22:51.797Z,8.71
2023-04-30T19:25:18.726Z,8.58
2023-04-30T19:27:46.615Z,8.58
2023-04-30T19:30:14.333Z,8.42
2023-04-30T19:32:41.264Z,8.56
2023-04-30T19:35:08.530Z,8.60
2023-04-30T19:37:36.432Z,8.55
2023-04-30T19:40:06.851Z,8.43
2023-04-30T19:42:34.004Z,8.26
2023-04-30T19:45:00.842Z,7.74
2023-04-30T19:47:27.737Z,7.74
2023-04-30T19:49:55.270Z,7.87
2023-04-30T19:52:22.285Z,7.86
2023-04-30T19:54:50.155Z,7.71
2023-04-30T19:57:20.019Z,7.71
2023-04-30T19:59:47.376Z,7.76
2023-04-30T20:02:14.583Z,7.76
2023-04-30T20:04:41.436Z,7.72
2023-04-30T20:07:08.199Z,7.55
2023-04-30T20:09:35.083Z,7.55
2023-04-30T20:12:03.675Z,7.60
2023-04-30T20:14:31.064Z,7.48
2023-04-30T20:16:58.370Z,7.58
2023-04-30T20:19:26.002Z,7.46
2023-04-30T20:21:54.086Z,7.54
2023-04-30T20:24:22.085Z,7.49
2023-04-30T20:26:48.990Z,7.40
2023-04-30T20:29:17.166Z,7.28
2023-04-30T20:31:44.299Z,7.17
2023-04-30T20:34:11.031Z,7.01
2023-04-30T20:36:37.971Z,6.91
2023-04-30T20:39:04.720Z,6.78
2023-04-30T20:41:32.223Z,6.80
2023-04-30T20:44:00.571Z,6.82
2023-04-30T20:46:28.418Z,6.70
2023-04-30T20:49:01.055Z,6.66
2023-04-30T20:51:28.520Z,6.68
2023-04-30T20:53:55.387Z,6.56
2023-04-30T20:56:22.532Z,6.65
2023-04-30T20:58:49.386Z,6.51
2023-04-30T21:01:16.274Z,6.48
2023-04-30T21:03:43.048Z,6.49
2023-04-30T21:06:10.921Z,6.43
2023-04-30T21:08:37.706Z,6.54
2023-04-30T21:11:04.437Z,6.35
2023-04-30T21:13:31.162Z,6.55
2023-04-30T21:15:58.227Z,6.42
2023-04-30T21:18:27.921Z,6.55
2023-04-30T21:21:01.935Z,7.60
2023-04-30T21:23:29.882Z,7.11
2023-04-30T21:25:56.715Z,6.57
2023-04-30T21:28:23.463Z,6.43
2023-04-30T21:30:50.270Z,6.43
2023-04-30T21:33:17.099Z,6.41
2023-04-30T21:35:43.910Z,6.27
2023-04-30T21:38:13.771Z,6.25
2023-04-30T21:40:42.523Z,6.27
2023-04-30T21:43:09.936Z,6.43
2023-04-30T21:45:37.924Z,6.30
2023-04-30T21:48:05.864Z,6.20
2023-04-30T21:50:33.438Z,6.09
2023-04-30T21:53:00.199Z,6.07
2023-04-30T21:55:27.389Z,6.02
2023-04-30T21:57:54.292Z,6.04
2023-04-30T22:00:21.215Z,5.90
2023-04-30T22:02:49.248Z,5.85
2023-04-30T22:05:17.546Z,5.84
2023-04-30T22:07:44.555Z,5.81
2023-04-30T22:10:11.507Z,5.82
2023-04-30T22:12:38.569Z,5.86
2023-04-30T22:15:06.432Z,5.90
2023-04-30T22:17:33.926Z,6.00
2023-04-30T22:20:01.080Z,6.07
2023-04-30T22:22:27.861Z,5.90
2023-04-30T22:24:55.213Z,5.82
2023-04-30T22:27:23.039Z,5.78
2023-04-30T22:29:50.501Z,5.74
2023-04-30T22:32:19.492Z,5.72
2023-04-30T22:34:46.410Z,5.77
2023-04-30T22:37:13.255Z,5.77
2023-04-30T22:39:40.090Z,5.70
2023-04-30T22:42:08.458Z,5.50
2023-04-30T22:44:35.658Z,5.42
2023-04-30T22:47:02.901Z,5.51
2023-04-30T22:49:32.066Z,5.48
2023-04-30T22:52:00.144Z,5.48
2023-04-30T22:54:27.320Z,5.53
2023-04-30T22:56:54.186Z,5.40
2023-04-30T22:59:21.048Z,5.39
2023-04-30T23:01:48.123Z,5.41
2023-04-30T23:04:14.933Z,5.49
2023-04-30T23:06:42.907Z,5.49
2023-04-30T23:09:10.170Z,5.43
2023-04-30T23:11:37.052Z,5.43
2023-04-30T23:14:04.315Z,5.31
2023-04-30T23:16:31.209Z,5.33
2023-04-30T23:18:58.346Z,5.30
2023-04-30T23:21:25.056Z,5.25
2023-04-30T23:23:51.842Z,5.18
2023-04-30T23:26:18.583Z,5.17
2023-04-30T23:28:45.319Z,5.30
2023-04-30T23:31:12.162Z,5.45
2023-04-30T23:33:38.874Z,5.47
2023-04-30T23:36:06.150Z,5.37
2023-04-30T23:38:32.880Z,5.34
2023-04-30T23:40:59.892Z,5.30
2023-04-30T23:43:29.113Z,5.25
2023-04-30T23:45:57.460Z,5.26
2023-04-30T23:48:24.308Z,5.37
2023-04-30T23:51:05.292Z,5.27
2023-04-30T23:53:32.403Z,5.23
2023-04-30T23:55:59.673Z,5.32
2023-04-30T23:58:27.195Z,5.30
